sensor_id;sensor_type;location;lat;lon;timestamp;P1;durP1;ratioP1;P2;durP2;ratioP2
14472;SDS011;7322;50.872;4.386;2023-06-04T00:02:51;1.98;;;1.45;;
14472;SDS011;7322;50.872;4.386;2023-06-04T00:05:33;1.88;;;1.30;;
14472;SDS011;7322;50.872;4.386;2023-06-04T00:16:01;2.00;;;1.30;;
14472;SDS011;7322;50.872;4.386;2023-06-04T00:18:36;1.65;;;1.30;;
14472;SDS011;7322;50.872;4.386;2023-06-04T00:24:08;2.15;;;1.20;;
14472;SDS011;7322;50.872;4.386;2023-06-04T00:32:29;1.65;;;1.20;;
14472;SDS011;7322;50.872;4.386;2023-06-04T00:35:00;1.45;;;1.30;;
14472;SDS011;7322;50.872;4.386;2023-06-04T00:43:13;1.90;;;1.27;;
14472;SDS011;7322;50.872;4.386;2023-06-04T00:50:55;1.60;;;1.20;;
14472;SDS011;7322;50.872;4.386;2023-06-04T00:56:24;2.40;;;1.27;;
14472;SDS011;7322;50.872;4.386;2023-06-04T01:01:42;1.55;;;1.30;;
14472;SDS011;7322;50.872;4.386;2023-06-04T01:07:24;1.10;;;1.00;;
14472;SDS011;7322;50.872;4.386;2023-06-04T01:12:38;1.92;;;1.20;;
14472;SDS011;7322;50.872;4.386;2023-06-04T01:15:06;2.05;;;1.30;;
14472;SDS011;7322;50.872;4.386;2023-06-04T01:17:38;4.32;;;1.40;;
14472;SDS011;7322;50.872;4.386;2023-06-04T01:20:25;1.60;;;1.20;;
14472;SDS011;7322;50.872;4.386;2023-06-04T01:25:54;1.30;;;1.20;;
14472;SDS011;7322;50.872;4.386;2023-06-04T01:28:35;1.20;;;1.08;;
14472;SDS011;7322;50.872;4.386;2023-06-04T01:31:16;2.08;;;1.40;;
14472;SDS011;7322;50.872;4.386;2023-06-04T01:33:50;1.77;;;1.33;;
14472;SDS011;7322;50.872;4.386;2023-06-04T01:41:24;1.83;;;1.15;;
14472;SDS011;7322;50.872;4.386;2023-06-04T01:43:53;1.30;;;1.20;;
14472;SDS011;7322;50.872;4.386;2023-06-04T01:46:35;2.47;;;1.20;;
14472;SDS011;7322;50.872;4.386;2023-06-04T01:51:35;2.80;;;1.40;;
14472;SDS011;7322;50.872;4.386;2023-06-04T01:54:04;1.60;;;1.10;;
14472;SDS011;7322;50.872;4.386;2023-06-04T01:56:33;1.48;;;1.10;;
14472;SDS011;7322;50.872;4.386;2023-06-04T01:59:02;1.40;;;1.30;;
14472;SDS011;7322;50.872;4.386;2023-06-04T02:01:41;2.00;;;1.30;;
14472;SDS011;7322;50.872;4.386;2023-06-04T02:04:08;1.27;;;1.00;;
14472;SDS011;7322;50.872;4.386;2023-06-04T02:06:42;1.17;;;0.90;;
14472;SDS011;7322;50.872;4.386;2023-06-04T02:09:16;2.53;;;1.38;;
14472;SDS011;7322;50.872;4.386;2023-06-04T02:11:54;1.85;;;1.25;;
14472;SDS011;7322;50.872;4.386;2023-06-04T02:22:53;2.17;;;1.52;;
14472;SDS011;7322;50.872;4.386;2023-06-04T02:25:22;2.20;;;1.38;;
14472;SDS011;7322;50.872;4.386;2023-06-04T02:27:51;2.13;;;1.20;;
14472;SDS011;7322;50.872;4.386;2023-06-04T02:30:26;2.33;;;1.35;;
14472;SDS011;7322;50.872;4.386;2023-06-04T02:32:53;3.13;;;1.40;;
14472;SDS011;7322;50.872;4.386;2023-06-04T02:35:21;1.67;;;1.35;;
14472;SDS011;7322;50.872;4.386;2023-06-04T02:37:56;2.10;;;1.40;;
14472;SDS011;7322;50.872;4.386;2023-06-04T02:40:42;1.60;;;1.20;;
14472;SDS011;7322;50.872;4.386;2023-06-04T02:43:18;3.08;;;1.40;;
14472;SDS011;7322;50.872;4.386;2023-06-04T02:48:22;1.95;;;1.23;;
14472;SDS011;7322;50.872;4.386;2023-06-04T02:50:53;3.38;;;1.30;;
14472;SDS011;7322;50.872;4.386;2023-06-04T02:53:25;1.33;;;1.23;;
14472;SDS011;7322;50.872;4.386;2023-06-04T02:56:07;2.08;;;1.10;;
14472;SDS011;7322;50.872;4.386;2023-06-04T02:58:35;2.28;;;1.15;;
14472;SDS011;7322;50.872;4.386;2023-06-04T03:08:10;2.10;;;1.30;;
14472;SDS011;7322;50.872;4.386;2023-06-04T03:10:46;2.25;;;1.50;;
14472;SDS011;7322;50.872;4.386;2023-06-04T03:13:51;1.90;;;1.17;;
14472;SDS011;7322;50.872;4.386;2023-06-04T03:19:23;3.22;;;1.30;;
14472;SDS011;7322;50.872;4.386;2023-06-04T03:27:24;1.45;;;1.10;;
14472;SDS011;7322;50.872;4.386;2023-06-04T03:29:54;1.48;;;1.30;;
14472;SDS011;7322;50.872;4.386;2023-06-04T03:32:25;3.30;;;1.50;;
14472;SDS011;7322;50.872;4.386;2023-06-04T03:40:56;2.08;;;1.13;;
14472;SDS011;7322;50.872;4.386;2023-06-04T03:46:20;1.58;;;1.35;;
14472;SDS011;7322;50.872;4.386;2023-06-04T03:48:52;1.85;;;1.40;;
14472;SDS011;7322;50.872;4.386;2023-06-04T03:51:20;2.28;;;1.42;;
14472;SDS011;7322;50.872;4.386;2023-06-04T03:54:01;2.25;;;1.58;;
14472;SDS011;7322;50.872;4.386;2023-06-04T03:56:34;1.65;;;1.30;;
14472;SDS011;7322;50.872;4.386;2023-06-04T03:59:02;2.78;;;1.50;;
14472;SDS011;7322;50.872;4.386;2023-06-04T04:01:45;3.15;;;1.30;;
14472;SDS011;7322;50.872;4.386;2023-06-04T04:04:20;1.35;;;1.20;;
14472;SDS011;7322;50.872;4.386;2023-06-04T04:06:53;1.63;;;1.30;;
14472;SDS011;7322;50.872;4.386;2023-06-04T04:09:22;2.58;;;1.40;;
14472;SDS011;7322;50.872;4.386;2023-06-04T04:11:59;2.10;;;1.30;;
14472;SDS011;7322;50.872;4.386;2023-06-04T04:14:28;2.33;;;1.20;;
14472;SDS011;7322;50.872;4.386;2023-06-04T04:17:10;2.05;;;1.35;;
14472;SDS011;7322;50.872;4.386;2023-06-04T04:19:38;3.03;;;1.50;;
14472;SDS011;7322;50.872;4.386;2023-06-04T04:22:05;2.13;;;1.48;;
14472;SDS011;7322;50.872;4.386;2023-06-04T04:27:10;2.42;;;1.58;;
14472;SDS011;7322;50.872;4.386;2023-06-04T04:29:37;4.43;;;1.92;;
14472;SDS011;7322;50.872;4.386;2023-06-04T04:32:05;2.05;;;1.48;;
14472;SDS011;7322;50.872;4.386;2023-06-04T04:34:36;1.60;;;1.30;;
14472;SDS011;7322;50.872;4.386;2023-06-04T04:37:07;1.75;;;1.50;;
14472;SDS011;7322;50.872;4.386;2023-06-04T04:39:35;2.45;;;1.40;;
14472;SDS011;7322;50.872;4.386;2023-06-04T04:42:02;2.42;;;1.40;;
14472;SDS011;7322;50.872;4.386;2023-06-04T04:44:31;1.63;;;1.25;;
14472;SDS011;7322;50.872;4.386;2023-06-04T04:46:58;1.65;;;1.40;;
14472;SDS011;7322;50.872;4.386;2023-06-04T04:49:25;3.13;;;1.70;;
14472;SDS011;7322;50.872;4.386;2023-06-04T04:51:54;1.80;;;1.20;;
14472;SDS011;7322;50.872;4.386;2023-06-04T04:54:21;2.20;;;1.40;;
14472;SDS011;7322;50.872;4.386;2023-06-04T04:56:49;1.88;;;1.45;;
14472;SDS011;7322;50.872;4.386;2023-06-04T04:59:18;3.22;;;1.42;;
14472;SDS011;7322;50.872;4.386;2023-06-04T05:01:45;1.73;;;1.60;;
14472;SDS011;7322;50.872;4.386;2023-06-04T05:04:12;1.75;;;1.40;;
14472;SDS011;7322;50.872;4.386;2023-06-04T05:06:40;1.30;;;1.20;;
14472;SDS011;7322;50.872;4.386;2023-06-04T05:09:12;1.73;;;1.42;;
14472;SDS011;7322;50.872;4.386;2023-06-04T05:11:39;4.20;;;1.52;;
14472;SDS011;7322;50.872;4.386;2023-06-04T05:14:06;4.28;;;1.75;;
14472;SDS011;7322;50.872;4.386;2023-06-04T05:16:33;3.08;;;1.30;;
14472;SDS011;7322;50.872;4.386;2023-06-04T05:19:01;1.85;;;1.40;;
14472;SDS011;7322;50.872;4.386;2023-06-04T05:21:29;2.08;;;1.40;;
14472;SDS011;7322;50.872;4.386;2023-06-04T05:23:56;3.13;;;1.58;;
14472;SDS011;7322;50.872;4.386;2023-06-04T05:26:24;2.67;;;1.50;;
14472;SDS011;7322;50.872;4.386;2023-06-04T05:28:53;2.30;;;1.50;;
14472;SDS011;7322;50.872;4.386;2023-06-04T05:31:21;2.35;;;1.65;;
14472;SDS011;7322;50.872;4.386;2023-06-04T05:33:52;2.17;;;1.30;;
14472;SDS011;7322;50.872;4.386;2023-06-04T05:39:10;2.08;;;1.30;;
14472;SDS011;7322;50.872;4.386;2023-06-04T05:41:39;3.45;;;1.67;;
14472;SDS011;7322;50.872;4.386;2023-06-04T05:44:08;2.38;;;1.60;;
14472;SDS011;7322;50.872;4.386;2023-06-04T05:46:37;2.28;;;1.48;;
14472;SDS011;7322;50.872;4.386;2023-06-04T05:49:05;2.28;;;1.50;;
14472;SDS011;7322;50.872;4.386;2023-06-04T05:51:33;2.58;;;1.58;;
14472;SDS011;7322;50.872;4.386;2023-06-04T05:54:01;2.20;;;1.70;;
14472;SDS011;7322;50.872;4.386;2023-06-04T05:56:29;3.25;;;2.00;;
14472;SDS011;7322;50.872;4.386;2023-06-04T05:58:58;2.70;;;1.60;;
14472;SDS011;7322;50.872;4.386;2023-06-04T06:01:25;1.98;;;1.40;;
14472;SDS011;7322;50.872;4.386;2023-06-04T06:03:54;2.25;;;1.70;;
14472;SDS011;7322;50.872;4.386;2023-06-04T06:06:21;2.30;;;1.63;;
14472;SDS011;7322;50.872;4.386;2023-06-04T06:08:48;2.88;;;1.45;;
14472;SDS011;7322;50.872;4.386;2023-06-04T06:11:15;2.65;;;1.40;;
14472;SDS011;7322;50.872;4.386;2023-06-04T06:13:42;1.75;;;1.50;;
14472;SDS011;7322;50.872;4.386;2023-06-04T06:16:11;1.52;;;1.30;;
14472;SDS011;7322;50.872;4.386;2023-06-04T06:18:38;3.42;;;1.80;;
14472;SDS011;7322;50.872;4.386;2023-06-04T06:21:05;3.47;;;1.60;;
14472;SDS011;7322;50.872;4.386;2023-06-04T06:23:32;3.13;;;1.83;;
14472;SDS011;7322;50.872;4.386;2023-06-04T06:26:01;2.58;;;1.60;;
14472;SDS011;7322;50.872;4.386;2023-06-04T06:28:29;2.58;;;1.35;;
14472;SDS011;7322;50.872;4.386;2023-06-04T06:30:56;3.83;;;1.83;;
14472;SDS011;7322;50.872;4.386;2023-06-04T06:33:25;2.33;;;1.60;;
14472;SDS011;7322;50.872;4.386;2023-06-04T06:35:52;3.60;;;1.80;;
14472;SDS011;7322;50.872;4.386;2023-06-04T06:38:20;3.55;;;1.80;;
14472;SDS011;7322;50.872;4.386;2023-06-04T06:40:49;3.08;;;1.75;;
14472;SDS011;7322;50.872;4.386;2023-06-04T06:43:17;1.70;;;1.60;;
14472;SDS011;7322;50.872;4.386;2023-06-04T06:45:50;1.73;;;1.30;;
14472;SDS011;7322;50.872;4.386;2023-06-04T06:48:17;3.92;;;1.75;;
14472;SDS011;7322;50.872;4.386;2023-06-04T06:50:47;2.65;;;1.52;;
14472;SDS011;7322;50.872;4.386;2023-06-04T06:53:15;2.05;;;1.58;;
14472;SDS011;7322;50.872;4.386;2023-06-04T06:55:43;2.08;;;1.40;;
14472;SDS011;7322;50.872;4.386;2023-06-04T06:58:10;3.33;;;1.80;;
14472;SDS011;7322;50.872;4.386;2023-06-04T07:00:37;3.35;;;1.50;;
14472;SDS011;7322;50.872;4.386;2023-06-04T07:03:04;1.88;;;1.75;;
14472;SDS011;7322;50.872;4.386;2023-06-04T07:05:39;3.28;;;1.63;;
14472;SDS011;7322;50.872;4.386;2023-06-04T07:08:14;7.28;;;1.75;;
14472;SDS011;7322;50.872;4.386;2023-06-04T07:10:42;2.10;;;1.55;;
14472;SDS011;7322;50.872;4.386;2023-06-04T07:13:11;2.85;;;1.52;;
14472;SDS011;7322;50.872;4.386;2023-06-04T07:15:48;3.67;;;1.45;;
14472;SDS011;7322;50.872;4.386;2023-06-04T07:18:16;1.98;;;1.38;;
14472;SDS011;7322;50.872;4.386;2023-06-04T07:20:43;2.20;;;1.80;;
14472;SDS011;7322;50.872;4.386;2023-06-04T07:23:10;3.13;;;1.60;;
14472;SDS011;7322;50.872;4.386;2023-06-04T07:25:40;2.30;;;1.58;;
14472;SDS011;7322;50.872;4.386;2023-06-04T07:28:07;1.88;;;1.23;;
14472;SDS011;7322;50.872;4.386;2023-06-04T07:30:35;2.47;;;1.30;;
14472;SDS011;7322;50.872;4.386;2023-06-04T07:33:03;2.60;;;1.52;;
14472;SDS011;7322;50.872;4.386;2023-06-04T07:35:32;1.95;;;1.35;;
14472;SDS011;7322;50.872;4.386;2023-06-04T07:37:59;3.05;;;1.67;;
14472;SDS011;7322;50.872;4.386;2023-06-04T07:40:28;2.13;;;1.48;;
14472;SDS011;7322;50.872;4.386;2023-06-04T07:42:59;3.85;;;1.77;;
14472;SDS011;7322;50.872;4.386;2023-06-04T07:45:26;5.05;;;1.50;;
14472;SDS011;7322;50.872;4.386;2023-06-04T07:50:49;7.05;;;1.30;;
14472;SDS011;7322;50.872;4.386;2023-06-04T07:53:16;3.05;;;1.60;;
14472;SDS011;7322;50.872;4.386;2023-06-04T07:55:43;2.95;;;1.38;;
14472;SDS011;7322;50.872;4.386;2023-06-04T08:01:24;3.63;;;1.63;;
14472;SDS011;7322;50.872;4.386;2023-06-04T08:12:51;4.22;;;1.60;;
14472;SDS011;7322;50.872;4.386;2023-06-04T08:20:43;3.70;;;2.00;;
14472;SDS011;7322;50.872;4.386;2023-06-04T08:23:14;4.38;;;1.80;;
14472;SDS011;7322;50.872;4.386;2023-06-04T08:25:43;5.07;;;1.65;;
14472;SDS011;7322;50.872;4.386;2023-06-04T08:28:16;2.10;;;1.65;;
14472;SDS011;7322;50.872;4.386;2023-06-04T08:30:51;4.50;;;1.30;;
14472;SDS011;7322;50.872;4.386;2023-06-04T08:36:11;5.20;;;1.98;;
14472;SDS011;7322;50.872;4.386;2023-06-04T08:44:00;4.18;;;1.50;;
14472;SDS011;7322;50.872;4.386;2023-06-04T08:49:26;4.15;;;1.67;;
14472;SDS011;7322;50.872;4.386;2023-06-04T08:51:59;3.00;;;1.48;;
14472;SDS011;7322;50.872;4.386;2023-06-04T08:54:31;2.47;;;1.42;;
14472;SDS011;7322;50.872;4.386;2023-06-04T08:57:16;5.95;;;1.70;;
14472;SDS011;7322;50.872;4.386;2023-06-04T08:59:55;3.15;;;1.50;;
14472;SDS011;7322;50.872;4.386;2023-06-04T09:02:25;2.85;;;1.50;;
14472;SDS011;7322;50.872;4.386;2023-06-04T09:07:47;3.67;;;1.55;;
14472;SDS011;7322;50.872;4.386;2023-06-04T09:10:20;3.97;;;1.75;;
14472;SDS011;7322;50.872;4.386;2023-06-04T09:13:00;3.08;;;1.63;;
14472;SDS011;7322;50.872;4.386;2023-06-04T09:16:12;3.75;;;1.67;;
14472;SDS011;7322;50.872;4.386;2023-06-04T09:19:03;4.22;;;1.73;;
14472;SDS011;7322;50.872;4.386;2023-06-04T09:24:38;3.42;;;1.60;;
14472;SDS011;7322;50.872;4.386;2023-06-04T09:27:12;5.13;;;1.80;;
14472;SDS011;7322;50.872;4.386;2023-06-04T09:30:11;5.32;;;1.83;;
14472;SDS011;7322;50.872;4.386;2023-06-04T09:35:25;8.07;;;1.98;;
14472;SDS011;7322;50.872;4.386;2023-06-04T09:38:01;5.65;;;1.83;;
14472;SDS011;7322;50.872;4.386;2023-06-04T09:46:17;4.82;;;2.08;;
14472;SDS011;7322;50.872;4.386;2023-06-04T09:48:58;5.05;;;2.30;;
14472;SDS011;7322;50.872;4.386;2023-06-04T09:51:32;3.92;;;2.00;;
14472;SDS011;7322;50.872;4.386;2023-06-04T09:54:12;5.55;;;2.20;;
14472;SDS011;7322;50.872;4.386;2023-06-04T09:59:17;3.97;;;1.92;;
14472;SDS011;7322;50.872;4.386;2023-06-04T10:01:45;4.72;;;2.58;;
14472;SDS011;7322;50.872;4.386;2023-06-04T10:06:53;6.43;;;2.10;;
14472;SDS011;7322;50.872;4.386;2023-06-04T10:09:23;6.30;;;1.98;;
14472;SDS011;7322;50.872;4.386;2023-06-04T10:11:57;6.78;;;2.40;;
14472;SDS011;7322;50.872;4.386;2023-06-04T10:14:27;4.35;;;1.95;;
14472;SDS011;7322;50.872;4.386;2023-06-04T10:17:12;4.40;;;2.25;;
14472;SDS011;7322;50.872;4.386;2023-06-04T10:19:42;5.10;;;1.77;;
14472;SDS011;7322;50.872;4.386;2023-06-04T10:22:14;5.47;;;2.50;;
14472;SDS011;7322;50.872;4.386;2023-06-04T10:24:53;4.55;;;2.08;;
14472;SDS011;7322;50.872;4.386;2023-06-04T10:27:23;5.10;;;2.13;;
14472;SDS011;7322;50.872;4.386;2023-06-04T10:29:52;5.63;;;2.25;;
14472;SDS011;7322;50.872;4.386;2023-06-04T10:32:21;3.38;;;1.95;;
14472;SDS011;7322;50.872;4.386;2023-06-04T10:37:23;5.43;;;2.08;;
14472;SDS011;7322;50.872;4.386;2023-06-04T10:42:45;4.85;;;2.08;;
14472;SDS011;7322;50.872;4.386;2023-06-04T10:45:12;4.13;;;2.17;;
14472;SDS011;7322;50.872;4.386;2023-06-04T10:47:40;4.13;;;2.00;;
14472;SDS011;7322;50.872;4.386;2023-06-04T10:50:11;4.07;;;2.00;;
14472;SDS011;7322;50.872;4.386;2023-06-04T10:52:55;5.07;;;2.28;;
14472;SDS011;7322;50.872;4.386;2023-06-04T10:55:24;6.28;;;2.33;;
14472;SDS011;7322;50.872;4.386;2023-06-04T10:57:53;8.13;;;2.13;;
14472;SDS011;7322;50.872;4.386;2023-06-04T11:06:23;4.75;;;2.47;;
14472;SDS011;7322;50.872;4.386;2023-06-04T11:09:02;6.25;;;2.30;;
14472;SDS011;7322;50.872;4.386;2023-06-04T11:11:36;7.53;;;2.30;;
14472;SDS011;7322;50.872;4.386;2023-06-04T11:14:12;5.57;;;2.17;;
14472;SDS011;7322;50.872;4.386;2023-06-04T11:16:42;7.13;;;2.28;;
14472;SDS011;7322;50.872;4.386;2023-06-04T11:19:09;8.32;;;2.53;;
14472;SDS011;7322;50.872;4.386;2023-06-04T11:24:08;5.07;;;2.10;;
14472;SDS011;7322;50.872;4.386;2023-06-04T11:26:45;7.75;;;2.40;;
14472;SDS011;7322;50.872;4.386;2023-06-04T11:29:14;6.93;;;2.28;;
14472;SDS011;7322;50.872;4.386;2023-06-04T11:31:47;4.05;;;1.90;;
14472;SDS011;7322;50.872;4.386;2023-06-04T11:37:23;6.30;;;2.45;;
14472;SDS011;7322;50.872;4.386;2023-06-04T11:39:56;4.72;;;2.05;;
14472;SDS011;7322;50.872;4.386;2023-06-04T11:42:23;5.72;;;2.15;;
14472;SDS011;7322;50.872;4.386;2023-06-04T11:44:55;5.95;;;2.20;;
14472;SDS011;7322;50.872;4.386;2023-06-04T11:47:23;4.05;;;2.10;;
14472;SDS011;7322;50.872;4.386;2023-06-04T11:49:54;3.13;;;1.90;;
14472;SDS011;7322;50.872;4.386;2023-06-04T11:52:23;4.80;;;2.30;;
14472;SDS011;7322;50.872;4.386;2023-06-04T11:54:52;4.90;;;2.40;;
14472;SDS011;7322;50.872;4.386;2023-06-04T11:57:22;7.22;;;2.38;;
14472;SDS011;7322;50.872;4.386;2023-06-04T11:59:49;7.45;;;2.10;;
14472;SDS011;7322;50.872;4.386;2023-06-04T12:02:26;6.53;;;2.25;;
14472;SDS011;7322;50.872;4.386;2023-06-04T12:04:53;6.45;;;2.10;;
14472;SDS011;7322;50.872;4.386;2023-06-04T12:07:20;4.55;;;2.10;;
14472;SDS011;7322;50.872;4.386;2023-06-04T12:10:04;6.00;;;2.17;;
14472;SDS011;7322;50.872;4.386;2023-06-04T12:12:40;5.88;;;2.50;;
14472;SDS011;7322;50.872;4.386;2023-06-04T12:15:18;4.18;;;1.95;;
14472;SDS011;7322;50.872;4.386;2023-06-04T12:17:53;6.13;;;2.20;;
14472;SDS011;7322;50.872;4.386;2023-06-04T12:20:33;4.00;;;2.20;;
14472;SDS011;7322;50.872;4.386;2023-06-04T12:23:19;6.20;;;1.80;;
14472;SDS011;7322;50.872;4.386;2023-06-04T12:25:53;4.00;;;2.13;;
14472;SDS011;7322;50.872;4.386;2023-06-04T12:28:24;4.10;;;2.10;;
14472;SDS011;7322;50.872;4.386;2023-06-04T12:30:53;5.40;;;2.10;;
14472;SDS011;7322;50.872;4.386;2023-06-04T12:33:34;2.78;;;1.90;;
14472;SDS011;7322;50.872;4.386;2023-06-04T12:36:12;4.97;;;1.98;;
14472;SDS011;7322;50.872;4.386;2023-06-04T12:38:42;3.13;;;1.73;;
14472;SDS011;7322;50.872;4.386;2023-06-04T12:41:18;3.28;;;1.85;;
14472;SDS011;7322;50.872;4.386;2023-06-04T12:43:55;3.22;;;2.10;;
14472;SDS011;7322;50.872;4.386;2023-06-04T12:46:23;4.10;;;1.83;;
14472;SDS011;7322;50.872;4.386;2023-06-04T12:49:07;2.97;;;1.92;;
14472;SDS011;7322;50.872;4.386;2023-06-04T12:51:40;3.22;;;1.85;;
14472;SDS011;7322;50.872;4.386;2023-06-04T12:54:09;2.25;;;1.77;;
14472;SDS011;7322;50.872;4.386;2023-06-04T12:56:38;3.70;;;1.75;;
14472;SDS011;7322;50.872;4.386;2023-06-04T12:59:18;3.55;;;1.75;;
14472;SDS011;7322;50.872;4.386;2023-06-04T13:01:45;3.15;;;2.30;;
14472;SDS011;7322;50.872;4.386;2023-06-04T13:04:19;2.80;;;1.88;;
14472;SDS011;7322;50.872;4.386;2023-06-04T13:06:46;3.70;;;1.92;;
14472;SDS011;7322;50.872;4.386;2023-06-04T13:09:15;4.20;;;2.03;;
14472;SDS011;7322;50.872;4.386;2023-06-04T13:11:44;4.43;;;2.70;;
14472;SDS011;7322;50.872;4.386;2023-06-04T13:14:11;3.58;;;2.00;;
14472;SDS011;7322;50.872;4.386;2023-06-04T13:16:55;3.88;;;2.00;;
14472;SDS011;7322;50.872;4.386;2023-06-04T13:19:23;3.40;;;1.90;;
14472;SDS011;7322;50.872;4.386;2023-06-04T13:22:06;3.67;;;2.17;;
14472;SDS011;7322;50.872;4.386;2023-06-04T13:24:42;2.22;;;1.75;;
14472;SDS011;7322;50.872;4.386;2023-06-04T13:27:10;3.47;;;2.15;;
14472;SDS011;7322;50.872;4.386;2023-06-04T13:29:38;1.83;;;1.63;;
14472;SDS011;7322;50.872;4.386;2023-06-04T13:32:07;2.72;;;1.80;;
14472;SDS011;7322;50.872;4.386;2023-06-04T13:34:43;2.63;;;1.90;;
14472;SDS011;7322;50.872;4.386;2023-06-04T13:40:04;2.20;;;1.70;;
14472;SDS011;7322;50.872;4.386;2023-06-04T13:42:42;3.08;;;1.90;;
14472;SDS011;7322;50.872;4.386;2023-06-04T13:45:19;2.80;;;1.67;;
14472;SDS011;7322;50.872;4.386;2023-06-04T13:53:26;3.33;;;2.20;;
14472;SDS011;7322;50.872;4.386;2023-06-04T13:55:58;2.90;;;1.83;;
14472;SDS011;7322;50.872;4.386;2023-06-04T14:01:16;2.13;;;1.70;;
14472;SDS011;7322;50.872;4.386;2023-06-04T14:03:45;5.40;;;3.50;;
14472;SDS011;7322;50.872;4.386;2023-06-04T14:06:12;4.32;;;3.05;;
14472;SDS011;7322;50.872;4.386;2023-06-04T14:08:39;3.13;;;2.17;;
14472;SDS011;7322;50.872;4.386;2023-06-04T14:11:10;2.63;;;2.08;;
14472;SDS011;7322;50.872;4.386;2023-06-04T14:13:42;2.95;;;2.13;;
14472;SDS011;7322;50.872;4.386;2023-06-04T14:16:18;2.80;;;2.05;;
14472;SDS011;7322;50.872;4.386;2023-06-04T14:18:52;3.10;;;2.10;;
14472;SDS011;7322;50.872;4.386;2023-06-04T14:21:27;2.88;;;2.13;;
14472;SDS011;7322;50.872;4.386;2023-06-04T14:23:54;6.07;;;2.40;;
14472;SDS011;7322;50.872;4.386;2023-06-04T14:26:23;9.57;;;3.47;;
14472;SDS011;7322;50.872;4.386;2023-06-04T14:28:53;10.60;;;3.53;;
14472;SDS011;7322;50.872;4.386;2023-06-04T14:34:01;4.18;;;2.60;;
14472;SDS011;7322;50.872;4.386;2023-06-04T14:36:39;6.50;;;2.45;;
14472;SDS011;7322;50.872;4.386;2023-06-04T14:39:08;5.55;;;2.70;;
14472;SDS011;7322;50.872;4.386;2023-06-04T14:44:21;5.57;;;2.45;;
14472;SDS011;7322;50.872;4.386;2023-06-04T14:46:48;4.10;;;2.40;;
14472;SDS011;7322;50.872;4.386;2023-06-04T14:49:19;4.47;;;2.30;;
14472;SDS011;7322;50.872;4.386;2023-06-04T14:51:47;5.68;;;2.30;;
14472;SDS011;7322;50.872;4.386;2023-06-04T14:54:17;3.45;;;2.35;;
14472;SDS011;7322;50.872;4.386;2023-06-04T14:56:45;5.38;;;1.98;;
14472;SDS011;7322;50.872;4.386;2023-06-04T14:59:15;4.53;;;2.60;;
14472;SDS011;7322;50.872;4.386;2023-06-04T15:04:15;5.93;;;2.67;;
14472;SDS011;7322;50.872;4.386;2023-06-04T15:06:44;6.00;;;2.85;;
14472;SDS011;7322;50.872;4.386;2023-06-04T15:09:11;4.53;;;2.47;;
14472;SDS011;7322;50.872;4.386;2023-06-04T15:11:38;4.30;;;2.40;;
14472;SDS011;7322;50.872;4.386;2023-06-04T15:14:10;4.50;;;2.58;;
14472;SDS011;7322;50.872;4.386;2023-06-04T15:16:38;3.85;;;2.40;;
14472;SDS011;7322;50.872;4.386;2023-06-04T15:19:06;5.72;;;2.50;;
14472;SDS011;7322;50.872;4.386;2023-06-04T15:21:48;3.10;;;2.10;;
14472;SDS011;7322;50.872;4.386;2023-06-04T15:24:21;3.95;;;2.42;;
14472;SDS011;7322;50.872;4.386;2023-06-04T15:26:48;5.25;;;2.35;;
14472;SDS011;7322;50.872;4.386;2023-06-04T15:29:15;4.28;;;2.42;;
14472;SDS011;7322;50.872;4.386;2023-06-04T15:31:48;2.33;;;1.95;;
14472;SDS011;7322;50.872;4.386;2023-06-04T15:34:16;3.22;;;2.05;;
14472;SDS011;7322;50.872;4.386;2023-06-04T15:36:44;3.25;;;2.30;;
14472;SDS011;7322;50.872;4.386;2023-06-04T15:39:16;4.43;;;1.98;;
14472;SDS011;7322;50.872;4.386;2023-06-04T15:41:51;4.68;;;2.58;;
14472;SDS011;7322;50.872;4.386;2023-06-04T15:44:23;5.20;;;3.33;;
14472;SDS011;7322;50.872;4.386;2023-06-04T15:46:53;5.55;;;3.47;;
14472;SDS011;7322;50.872;4.386;2023-06-04T15:51:51;3.88;;;2.55;;
14472;SDS011;7322;50.872;4.386;2023-06-04T15:54:20;4.57;;;2.72;;
14472;SDS011;7322;50.872;4.386;2023-06-04T15:56:48;4.38;;;2.72;;
14472;SDS011;7322;50.872;4.386;2023-06-04T16:01:53;3.30;;;2.30;;
14472;SDS011;7322;50.872;4.386;2023-06-04T16:04:20;4.00;;;2.70;;
14472;SDS011;7322;50.872;4.386;2023-06-04T16:06:48;3.53;;;2.35;;
14472;SDS011;7322;50.872;4.386;2023-06-04T16:09:16;4.03;;;2.25;;
14472;SDS011;7322;50.872;4.386;2023-06-04T16:11:47;2.78;;;2.10;;
14472;SDS011;7322;50.872;4.386;2023-06-04T16:16:53;2.95;;;2.13;;
14472;SDS011;7322;50.872;4.386;2023-06-04T16:19:33;4.32;;;2.70;;
14472;SDS011;7322;50.872;4.386;2023-06-04T16:22:02;3.22;;;2.17;;
14472;SDS011;7322;50.872;4.386;2023-06-04T16:24:29;2.97;;;1.90;;
14472;SDS011;7322;50.872;4.386;2023-06-04T16:26:59;5.40;;;2.20;;
14472;SDS011;7322;50.872;4.386;2023-06-04T16:29:28;3.10;;;2.17;;
14472;SDS011;7322;50.872;4.386;2023-06-04T16:31:58;2.67;;;2.10;;
14472;SDS011;7322;50.872;4.386;2023-06-04T16:34:26;2.90;;;2.22;;
14472;SDS011;7322;50.872;4.386;2023-06-04T16:36:53;2.47;;;2.20;;
14472;SDS011;7322;50.872;4.386;2023-06-04T16:39:20;3.35;;;1.90;;
14472;SDS011;7322;50.872;4.386;2023-06-04T16:41:51;2.45;;;1.80;;
14472;SDS011;7322;50.872;4.386;2023-06-04T16:44:30;2.78;;;2.20;;
14472;SDS011;7322;50.872;4.386;2023-06-04T16:47:04;4.60;;;2.30;;
14472;SDS011;7322;50.872;4.386;2023-06-04T16:49:31;2.45;;;1.88;;
14472;SDS011;7322;50.872;4.386;2023-06-04T16:52:00;3.35;;;2.17;;
14472;SDS011;7322;50.872;4.386;2023-06-04T16:57:16;2.75;;;2.20;;
14472;SDS011;7322;50.872;4.386;2023-06-04T16:59:53;3.80;;;2.20;;
14472;SDS011;7322;50.872;4.386;2023-06-04T17:07:50;2.50;;;2.08;;
14472;SDS011;7322;50.872;4.386;2023-06-04T17:10:29;4.22;;;2.15;;
14472;SDS011;7322;50.872;4.386;2023-06-04T17:12:58;3.15;;;2.15;;
14472;SDS011;7322;50.872;4.386;2023-06-04T17:18:20;2.75;;;2.22;;
14472;SDS011;7322;50.872;4.386;2023-06-04T17:20:47;3.15;;;2.10;;
14472;SDS011;7322;50.872;4.386;2023-06-04T17:23:20;4.22;;;2.15;;
14472;SDS011;7322;50.872;4.386;2023-06-04T17:25:52;2.67;;;2.13;;
14472;SDS011;7322;50.872;4.386;2023-06-04T17:28:20;3.15;;;2.20;;
14472;SDS011;7322;50.872;4.386;2023-06-04T17:30:53;4.78;;;2.08;;
14472;SDS011;7322;50.872;4.386;2023-06-04T17:33:26;3.88;;;2.30;;
14472;SDS011;7322;50.872;4.386;2023-06-04T17:38:37;4.15;;;2.20;;
14472;SDS011;7322;50.872;4.386;2023-06-04T17:44:17;3.90;;;2.35;;
14472;SDS011;7322;50.872;4.386;2023-06-04T17:46:47;5.03;;;2.03;;
14472;SDS011;7322;50.872;4.386;2023-06-04T17:49:17;3.55;;;2.53;;
14472;SDS011;7322;50.872;4.386;2023-06-04T17:51:46;2.53;;;2.17;;
14472;SDS011;7322;50.872;4.386;2023-06-04T17:54:17;5.35;;;2.50;;
14472;SDS011;7322;50.872;4.386;2023-06-04T17:56:46;5.25;;;2.83;;
14472;SDS011;7322;50.872;4.386;2023-06-04T18:01:51;5.13;;;2.85;;
14472;SDS011;7322;50.872;4.386;2023-06-04T18:04:24;3.72;;;2.50;;
14472;SDS011;7322;50.872;4.386;2023-06-04T18:09:23;3.13;;;2.35;;
14472;SDS011;7322;50.872;4.386;2023-06-04T18:14:22;3.63;;;2.25;;
14472;SDS011;7322;50.872;4.386;2023-06-04T18:17:11;3.03;;;2.40;;
14472;SDS011;7322;50.872;4.386;2023-06-04T18:19:40;3.97;;;2.13;;
14472;SDS011;7322;50.872;4.386;2023-06-04T18:22:14;3.47;;;2.22;;
14472;SDS011;7322;50.872;4.386;2023-06-04T18:30:49;3.72;;;2.03;;
14472;SDS011;7322;50.872;4.386;2023-06-04T18:33:23;3.22;;;2.10;;
14472;SDS011;7322;50.872;4.386;2023-06-04T18:35:56;2.95;;;2.08;;
14472;SDS011;7322;50.872;4.386;2023-06-04T18:38:23;2.97;;;2.35;;
14472;SDS011;7322;50.872;4.386;2023-06-04T18:40:50;3.95;;;2.20;;
14472;SDS011;7322;50.872;4.386;2023-06-04T18:43:25;3.72;;;2.42;;
14472;SDS011;7322;50.872;4.386;2023-06-04T18:45:53;3.88;;;2.30;;
14472;SDS011;7322;50.872;4.386;2023-06-04T18:48:21;2.80;;;2.30;;
14472;SDS011;7322;50.872;4.386;2023-06-04T18:50:54;2.90;;;2.35;;
14472;SDS011;7322;50.872;4.386;2023-06-04T18:53:23;4.72;;;2.33;;
14472;SDS011;7322;50.872;4.386;2023-06-04T18:55:52;2.50;;;2.10;;
14472;SDS011;7322;50.872;4.386;2023-06-04T18:58:19;4.30;;;2.30;;
14472;SDS011;7322;50.872;4.386;2023-06-04T19:03:19;3.97;;;2.22;;
14472;SDS011;7322;50.872;4.386;2023-06-04T19:05:56;3.20;;;2.05;;